ENY3475 KORD-KFSD
Flight info
| Callsign | ENY3475 |
|---|---|
| Flight time | 1h 19m |
| Altitude | 32000 |
| Route | MYKIE MONNY SMIDD |
| Aircraft | E140/M-SDFGIRW/S |
Departure
| Time | 2026-04-20 22:35 |
|---|---|
| Airport | Chicago O'Hare International Airport (KORD) |
Arrival
| Time | 2026-04-20 23:55 |
|---|---|
| Airport | Sioux Falls Regional Airport (KFSD) |
| Time | Latitude | Longitude | Altitude | Speed | Heading |
|---|---|---|---|---|---|
| 2026-04-20 22:19 | 41.97270 | -87.90540 | 662 ft | 0 kts | 322° |
| 2026-04-20 22:25 | 41.97271 | -87.90540 | 662 ft | 0 kts | 322° |
| 2026-04-20 22:26 | 41.97267 | -87.90537 | 662 ft | 1 kts | 322° |
| 2026-04-20 22:26 | 41.97259 | -87.90522 | 662 ft | 2 kts | 288° |
| 2026-04-20 22:27 | 41.97266 | -87.90486 | 662 ft | 2 kts | 215° |
| 2026-04-20 22:27 | 41.97276 | -87.90480 | 662 ft | 0 kts | 195° |
| 2026-04-20 22:30 | 41.97269 | -87.90483 | 662 ft | 2 kts | 195° |
| 2026-04-20 22:31 | 41.97224 | -87.90502 | 662 ft | 11 kts | 202° |
| 2026-04-20 22:31 | 41.97142 | -87.90514 | 662 ft | 12 kts | 148° |
| 2026-04-20 22:31 | 41.97053 | -87.90473 | 662 ft | 14 kts | 128° |
| 2026-04-20 22:31 | 41.97039 | -87.90335 | 662 ft | 16 kts | 90° |
| 2026-04-20 22:32 | 41.97039 | -87.90157 | 659 ft | 21 kts | 89° |
| 2026-04-20 22:32 | 41.97039 | -87.89951 | 656 ft | 22 kts | 89° |
| 2026-04-20 22:32 | 41.97039 | -87.89739 | 654 ft | 23 kts | 90° |
| 2026-04-20 22:32 | 41.97041 | -87.89513 | 652 ft | 24 kts | 89° |
| 2026-04-20 22:33 | 41.97041 | -87.89287 | 652 ft | 24 kts | 89° |
| 2026-04-20 22:33 | 41.97041 | -87.89059 | 652 ft | 24 kts | 90° |
| 2026-04-20 22:33 | 41.97040 | -87.88837 | 652 ft | 24 kts | 89° |
| 2026-04-20 22:33 | 41.97042 | -87.88613 | 652 ft | 23 kts | 89° |
| 2026-04-20 22:34 | 41.97044 | -87.88390 | 652 ft | 23 kts | 90° |
| 2026-04-20 22:34 | 41.97044 | -87.88220 | 652 ft | 10 kts | 89° |
| 2026-04-20 22:34 | 41.97044 | -87.88117 | 651 ft | 9 kts | 90° |
| 2026-04-20 22:34 | 41.97015 | -87.88039 | 650 ft | 10 kts | 144° |
| 2026-04-20 22:35 | 41.96940 | -87.88043 | 650 ft | 13 kts | 219° |
| 2026-04-20 22:35 | 41.96795 | -87.88213 | 652 ft | 62 kts | 221° |
| 2026-04-20 22:35 | 41.96242 | -87.88868 | 671 ft | 142 kts | 222° |
| 2026-04-20 22:35 | 41.95508 | -87.89738 | 1453 ft | 148 kts | 221° |
| 2026-04-20 22:36 | 41.94703 | -87.90672 | 2097 ft | 166 kts | 221° |
| 2026-04-20 22:36 | 41.93763 | -87.91794 | 2567 ft | 199 kts | 221° |
| 2026-04-20 22:36 | 41.92722 | -87.93252 | 3135 ft | 231 kts | 238° |
| 2026-04-20 22:36 | 41.92444 | -87.95454 | 3998 ft | 252 kts | 270° |
| 2026-04-20 22:37 | 41.92580 | -87.97736 | 5220 ft | 248 kts | 270° |
| 2026-04-20 22:37 | 41.92721 | -88.00007 | 6366 ft | 246 kts | 270° |
| 2026-04-20 22:37 | 41.92870 | -88.02283 | 7358 ft | 249 kts | 270° |
| 2026-04-20 22:37 | 41.93040 | -88.04583 | 8317 ft | 252 kts | 270° |
| 2026-04-20 22:38 | 41.93218 | -88.06910 | 9269 ft | 253 kts | 270° |
| 2026-04-20 22:38 | 41.93575 | -88.09237 | 10165 ft | 264 kts | 289° |
| 2026-04-20 22:38 | 41.94457 | -88.11407 | 10918 ft | 272 kts | 292° |
| 2026-04-20 22:38 | 41.95406 | -88.13723 | 11423 ft | 287 kts | 292° |
| 2026-04-20 22:39 | 41.96384 | -88.16122 | 11955 ft | 299 kts | 292° |
| 2026-04-20 22:39 | 41.97335 | -88.18617 | 12553 ft | 304 kts | 287° |
| 2026-04-20 22:39 | 41.98144 | -88.21247 | 13327 ft | 305 kts | 287° |
| 2026-04-20 22:39 | 41.98962 | -88.23878 | 14086 ft | 305 kts | 287° |
| 2026-04-20 22:40 | 41.99781 | -88.26494 | 14770 ft | 307 kts | 287° |
| 2026-04-20 22:40 | 42.00624 | -88.29176 | 15434 ft | 309 kts | 287° |
| 2026-04-20 22:40 | 42.01466 | -88.31840 | 16067 ft | 311 kts | 287° |
| 2026-04-20 22:40 | 42.02311 | -88.34505 | 16675 ft | 313 kts | 287° |
| 2026-04-20 22:41 | 42.03173 | -88.37214 | 17272 ft | 315 kts | 287° |
| 2026-04-20 22:41 | 42.04027 | -88.39935 | 17847 ft | 315 kts | 285° |
| 2026-04-20 22:41 | 42.04816 | -88.42691 | 18401 ft | 316 kts | 285° |
| 2026-04-20 22:41 | 42.05597 | -88.45407 | 19113 ft | 312 kts | 285° |
| 2026-04-20 22:42 | 42.06379 | -88.48098 | 19843 ft | 306 kts | 285° |
| 2026-04-20 22:42 | 42.07149 | -88.50731 | 20473 ft | 303 kts | 285° |
| 2026-04-20 22:42 | 42.07923 | -88.53366 | 21053 ft | 302 kts | 285° |
| 2026-04-20 22:42 | 42.08694 | -88.55984 | 21643 ft | 299 kts | 285° |
| 2026-04-20 22:43 | 42.09462 | -88.58576 | 22206 ft | 297 kts | 285° |
| 2026-04-20 22:43 | 42.10227 | -88.61144 | 22763 ft | 295 kts | 285° |
| 2026-04-20 22:43 | 42.10983 | -88.63682 | 23297 ft | 292 kts | 285° |
| 2026-04-20 22:43 | 42.11739 | -88.66219 | 23825 ft | 289 kts | 284° |
| 2026-04-20 22:44 | 42.12482 | -88.68714 | 24343 ft | 287 kts | 284° |
| 2026-04-20 22:44 | 42.13223 | -88.71199 | 24842 ft | 285 kts | 284° |
| 2026-04-20 22:44 | 42.13962 | -88.73669 | 25330 ft | 283 kts | 285° |
| 2026-04-20 22:44 | 42.14724 | -88.76095 | 25799 ft | 281 kts | 285° |
| 2026-04-20 22:45 | 42.15483 | -88.78498 | 26242 ft | 280 kts | 285° |
| 2026-04-20 22:45 | 42.16128 | -88.80949 | 26658 ft | 271 kts | 272° |
| 2026-04-20 22:45 | 42.16216 | -88.83429 | 27100 ft | 266 kts | 269° |
| 2026-04-20 22:45 | 42.16194 | -88.85900 | 27542 ft | 262 kts | 265° |
| 2026-04-20 22:46 | 42.16077 | -88.88363 | 27955 ft | 260 kts | 265° |
| 2026-04-20 22:46 | 42.15980 | -88.90778 | 28320 ft | 260 kts | 266° |
| 2026-04-20 22:46 | 42.15913 | -88.93211 | 28703 ft | 258 kts | 266° |
| 2026-04-20 22:46 | 42.15837 | -88.95586 | 29076 ft | 256 kts | 267° |
| 2026-04-20 22:47 | 42.15760 | -88.97984 | 29453 ft | 254 kts | 268° |
| 2026-04-20 22:47 | 42.15702 | -89.00343 | 29783 ft | 253 kts | 268° |
| 2026-04-20 22:47 | 42.15632 | -89.02717 | 30116 ft | 252 kts | 268° |
| 2026-04-20 22:47 | 42.15547 | -89.05052 | 30436 ft | 251 kts | 268° |
| 2026-04-20 22:48 | 42.15453 | -89.07397 | 30735 ft | 250 kts | 269° |
| 2026-04-20 22:48 | 42.15390 | -89.09712 | 31035 ft | 249 kts | 269° |
| 2026-04-20 22:48 | 42.15321 | -89.12044 | 31321 ft | 248 kts | 269° |
| 2026-04-20 22:48 | 42.15254 | -89.14350 | 31607 ft | 247 kts | 269° |
| 2026-04-20 22:49 | 42.15181 | -89.16647 | 31863 ft | 246 kts | 269° |
| 2026-04-20 22:49 | 42.15110 | -89.18941 | 32137 ft | 245 kts | 269° |
| 2026-04-20 22:49 | 42.15036 | -89.21250 | 32256 ft | 249 kts | 269° |
| 2026-04-20 22:49 | 42.14955 | -89.23628 | 32269 ft | 257 kts | 269° |
| 2026-04-20 22:50 | 42.14877 | -89.26063 | 32270 ft | 264 kts | 269° |
| 2026-04-20 22:50 | 42.14804 | -89.28428 | 32271 ft | 271 kts | 269° |
| 2026-04-20 22:50 | 42.14734 | -89.30811 | 32269 ft | 277 kts | 269° |
| 2026-04-20 22:50 | 42.14658 | -89.33443 | 32269 ft | 284 kts | 269° |
| 2026-04-20 22:51 | 42.14584 | -89.36137 | 32264 ft | 290 kts | 269° |
| 2026-04-20 22:51 | 42.14504 | -89.38924 | 32263 ft | 296 kts | 269° |
| 2026-04-20 22:51 | 42.14358 | -89.44552 | 32255 ft | 307 kts | 269° |
| 2026-04-20 22:52 | 42.14209 | -89.50373 | 32254 ft | 317 kts | 270° |
| 2026-04-20 22:52 | 42.14061 | -89.56422 | 32252 ft | 326 kts | 269° |
| 2026-04-20 22:53 | 42.13918 | -89.62589 | 32250 ft | 334 kts | 270° |
| 2026-04-20 22:53 | 42.13772 | -89.68943 | 32261 ft | 341 kts | 269° |
| 2026-04-20 22:54 | 42.13617 | -89.75356 | 32264 ft | 348 kts | 269° |
| 2026-04-20 22:54 | 42.13485 | -89.81911 | 32255 ft | 355 kts | 269° |
| 2026-04-20 22:55 | 42.13328 | -89.88646 | 32244 ft | 360 kts | 269° |
| 2026-04-20 22:55 | 42.13192 | -89.95458 | 32234 ft | 362 kts | 269° |
| 2026-04-20 22:56 | 42.13060 | -90.02199 | 32219 ft | 360 kts | 270° |
| 2026-04-20 22:56 | 42.12938 | -90.08959 | 32218 ft | 360 kts | 270° |
| 2026-04-20 22:57 | 42.12835 | -90.15708 | 32215 ft | 360 kts | 270° |
| 2026-04-20 22:57 | 42.12726 | -90.22458 | 32217 ft | 361 kts | 270° |
| 2026-04-20 22:58 | 42.12557 | -90.29170 | 32211 ft | 361 kts | 266° |
| 2026-04-20 22:58 | 42.12022 | -90.35892 | 32211 ft | 362 kts | 266° |
| 2026-04-20 22:59 | 42.11530 | -90.42643 | 32212 ft | 361 kts | 267° |
| 2026-04-20 22:59 | 42.11123 | -90.49359 | 32205 ft | 361 kts | 268° |
| 2026-04-20 23:00 | 42.10717 | -90.56065 | 32199 ft | 361 kts | 268° |
| 2026-04-20 23:00 | 42.10322 | -90.62785 | 32191 ft | 361 kts | 268° |
| 2026-04-20 23:01 | 42.09916 | -90.69601 | 32204 ft | 361 kts | 267° |
| 2026-04-20 23:01 | 42.09512 | -90.76326 | 32194 ft | 362 kts | 267° |
| 2026-04-20 23:02 | 42.09121 | -90.83057 | 32189 ft | 361 kts | 268° |
| 2026-04-20 23:02 | 42.08848 | -90.89764 | 32184 ft | 361 kts | 269° |
| 2026-04-20 23:03 | 42.08686 | -90.96530 | 32178 ft | 362 kts | 269° |
| 2026-04-20 23:03 | 42.08524 | -91.03280 | 32171 ft | 361 kts | 269° |
| 2026-04-20 23:04 | 42.08350 | -91.10009 | 32173 ft | 361 kts | 269° |
| 2026-04-20 23:04 | 42.08172 | -91.16771 | 32171 ft | 361 kts | 270° |
| 2026-04-20 23:05 | 42.07993 | -91.23507 | 32171 ft | 360 kts | 270° |
| 2026-04-20 23:05 | 42.08817 | -91.30003 | 32171 ft | 366 kts | 298° |
| 2026-04-20 23:06 | 42.11669 | -91.35728 | 32170 ft | 367 kts | 299° |
| 2026-04-20 23:06 | 42.14487 | -91.41450 | 32166 ft | 367 kts | 299° |
| 2026-04-20 23:07 | 42.17296 | -91.47158 | 32165 ft | 367 kts | 299° |
| 2026-04-20 23:07 | 42.20126 | -91.52889 | 32167 ft | 367 kts | 299° |
| 2026-04-20 23:08 | 42.22949 | -91.58608 | 32164 ft | 366 kts | 299° |
| 2026-04-20 23:08 | 42.25793 | -91.64342 | 32163 ft | 368 kts | 299° |
| 2026-04-20 23:09 | 42.28618 | -91.70058 | 32180 ft | 367 kts | 299° |
| 2026-04-20 23:09 | 42.31439 | -91.75787 | 32175 ft | 366 kts | 299° |
| 2026-04-20 23:10 | 42.34273 | -91.81518 | 32174 ft | 366 kts | 299° |
| 2026-04-20 23:10 | 42.37087 | -91.87228 | 32175 ft | 366 kts | 299° |
| 2026-04-20 23:11 | 42.40008 | -91.92861 | 32176 ft | 368 kts | 301° |
| 2026-04-20 23:11 | 42.43019 | -91.98412 | 32176 ft | 368 kts | 301° |
| 2026-04-20 23:12 | 42.46049 | -92.03999 | 32170 ft | 367 kts | 301° |
| 2026-04-20 23:12 | 42.49095 | -92.09567 | 32165 ft | 369 kts | 301° |
| 2026-04-20 23:13 | 42.52134 | -92.15142 | 32154 ft | 368 kts | 301° |
| 2026-04-20 23:13 | 42.55180 | -92.20699 | 32142 ft | 369 kts | 301° |
| 2026-04-20 23:14 | 42.58270 | -92.26341 | 32135 ft | 369 kts | 302° |
| 2026-04-20 23:14 | 42.61327 | -92.31922 | 32129 ft | 369 kts | 302° |
| 2026-04-20 23:15 | 42.64382 | -92.37485 | 32123 ft | 369 kts | 302° |
| 2026-04-20 23:15 | 42.67444 | -92.43079 | 32121 ft | 368 kts | 302° |
| 2026-04-20 23:16 | 42.70493 | -92.48623 | 32120 ft | 370 kts | 302° |
| 2026-04-20 23:16 | 42.73573 | -92.54217 | 32117 ft | 368 kts | 302° |
| 2026-04-20 23:17 | 42.76631 | -92.59785 | 32112 ft | 369 kts | 302° |
| 2026-04-20 23:17 | 42.78045 | -92.62663 | 32085 ft | 363 kts | 291° |
| 2026-04-20 23:17 | 42.78882 | -92.65919 | 32124 ft | 361 kts | 287° |
| 2026-04-20 23:18 | 42.80536 | -92.72400 | 32114 ft | 362 kts | 287° |
| 2026-04-20 23:18 | 42.82242 | -92.78828 | 32105 ft | 361 kts | 288° |
| 2026-04-20 23:19 | 42.83962 | -92.85255 | 32101 ft | 362 kts | 288° |
| 2026-04-20 23:19 | 42.85688 | -92.91697 | 32099 ft | 362 kts | 288° |
| 2026-04-20 23:20 | 42.87352 | -92.98178 | 32096 ft | 365 kts | 288° |
| 2026-04-20 23:20 | 42.88964 | -93.04742 | 32091 ft | 368 kts | 288° |
| 2026-04-20 23:21 | 42.90521 | -93.11455 | 32084 ft | 373 kts | 288° |
| 2026-04-20 23:21 | 42.92022 | -93.18281 | 32082 ft | 377 kts | 288° |
| 2026-04-20 23:22 | 42.93499 | -93.25120 | 32075 ft | 380 kts | 288° |
| 2026-04-20 23:22 | 42.94970 | -93.32063 | 32074 ft | 382 kts | 288° |
| 2026-04-20 23:23 | 42.96426 | -93.39076 | 32067 ft | 385 kts | 288° |
| 2026-04-20 23:23 | 42.97870 | -93.46111 | 32048 ft | 387 kts | 289° |
| 2026-04-20 23:24 | 42.99294 | -93.53218 | 32028 ft | 390 kts | 289° |
| 2026-04-20 23:24 | 43.00736 | -93.60428 | 32006 ft | 393 kts | 289° |
| 2026-04-20 23:25 | 43.02214 | -93.67741 | 32032 ft | 395 kts | 288° |
| 2026-04-20 23:25 | 43.03683 | -93.75015 | 32033 ft | 398 kts | 288° |
| 2026-04-20 23:26 | 43.05154 | -93.82302 | 32032 ft | 398 kts | 288° |
| 2026-04-20 23:26 | 43.06621 | -93.89567 | 32025 ft | 398 kts | 288° |
| 2026-04-20 23:27 | 43.08101 | -93.96883 | 32010 ft | 399 kts | 289° |
| 2026-04-20 23:27 | 43.09582 | -94.04171 | 31996 ft | 398 kts | 289° |
| 2026-04-20 23:28 | 43.11086 | -94.11515 | 31994 ft | 399 kts | 289° |
| 2026-04-20 23:28 | 43.12579 | -94.18801 | 31993 ft | 399 kts | 289° |
| 2026-04-20 23:29 | 43.14078 | -94.26077 | 31992 ft | 399 kts | 289° |
| 2026-04-20 23:29 | 43.15585 | -94.33368 | 31991 ft | 398 kts | 289° |
| 2026-04-20 23:30 | 43.17110 | -94.40725 | 31989 ft | 398 kts | 289° |
| 2026-04-20 23:30 | 43.17869 | -94.44368 | 31818 ft | 400 kts | 289° |
| 2026-04-20 23:30 | 43.18617 | -94.47952 | 31428 ft | 390 kts | 289° |
| 2026-04-20 23:31 | 43.19358 | -94.51490 | 31004 ft | 385 kts | 289° |
| 2026-04-20 23:31 | 43.20096 | -94.55029 | 30572 ft | 383 kts | 289° |
| 2026-04-20 23:31 | 43.20823 | -94.58498 | 30147 ft | 381 kts | 289° |
| 2026-04-20 23:31 | 43.21550 | -94.61967 | 29718 ft | 379 kts | 289° |
| 2026-04-20 23:32 | 43.22282 | -94.65440 | 29287 ft | 377 kts | 289° |
| 2026-04-20 23:32 | 43.22996 | -94.68847 | 28873 ft | 375 kts | 289° |
| 2026-04-20 23:32 | 43.23719 | -94.72292 | 28451 ft | 372 kts | 289° |
| 2026-04-20 23:32 | 43.24433 | -94.75668 | 28033 ft | 370 kts | 289° |
| 2026-04-20 23:33 | 43.25147 | -94.79026 | 27614 ft | 368 kts | 289° |
| 2026-04-20 23:33 | 43.25858 | -94.82374 | 27195 ft | 365 kts | 289° |
| 2026-04-20 23:33 | 43.26628 | -94.85698 | 26769 ft | 360 kts | 291° |
| 2026-04-20 23:33 | 43.27387 | -94.88902 | 26354 ft | 357 kts | 291° |
| 2026-04-20 23:34 | 43.28155 | -94.92165 | 25927 ft | 354 kts | 291° |
| 2026-04-20 23:34 | 43.28898 | -94.95375 | 25505 ft | 351 kts | 291° |
| 2026-04-20 23:34 | 43.29623 | -94.98547 | 25084 ft | 348 kts | 291° |
| 2026-04-20 23:34 | 43.30334 | -95.01690 | 24645 ft | 345 kts | 292° |
| 2026-04-20 23:35 | 43.31205 | -95.04716 | 24145 ft | 339 kts | 297° |
| 2026-04-20 23:35 | 43.33020 | -95.10719 | 23137 ft | 336 kts | 296° |
| 2026-04-20 23:35 | 43.33937 | -95.13731 | 22626 ft | 333 kts | 297° |
| 2026-04-20 23:36 | 43.34848 | -95.16708 | 22117 ft | 332 kts | 297° |
| 2026-04-20 23:36 | 43.35739 | -95.19625 | 21615 ft | 329 kts | 297° |
| 2026-04-20 23:36 | 43.36640 | -95.22560 | 21105 ft | 327 kts | 297° |
| 2026-04-20 23:36 | 43.37524 | -95.25432 | 20602 ft | 325 kts | 297° |
| 2026-04-20 23:37 | 43.38405 | -95.28288 | 20099 ft | 323 kts | 297° |
| 2026-04-20 23:37 | 43.39274 | -95.31109 | 19600 ft | 321 kts | 297° |
| 2026-04-20 23:37 | 43.40151 | -95.33947 | 19093 ft | 319 kts | 297° |
| 2026-04-20 23:37 | 43.41013 | -95.36723 | 18594 ft | 317 kts | 297° |
| 2026-04-20 23:38 | 43.41877 | -95.39496 | 18190 ft | 315 kts | 297° |
| 2026-04-20 23:38 | 43.42738 | -95.42251 | 17871 ft | 314 kts | 297° |
| 2026-04-20 23:38 | 43.43605 | -95.45028 | 17568 ft | 313 kts | 297° |
| 2026-04-20 23:38 | 43.44459 | -95.47752 | 17267 ft | 313 kts | 297° |
| 2026-04-20 23:39 | 43.45324 | -95.50510 | 16962 ft | 312 kts | 297° |
| 2026-04-20 23:39 | 43.46184 | -95.53242 | 16657 ft | 311 kts | 297° |
| 2026-04-20 23:39 | 43.47040 | -95.55949 | 16354 ft | 310 kts | 297° |
| 2026-04-20 23:39 | 43.47900 | -95.58670 | 16048 ft | 309 kts | 297° |
| 2026-04-20 23:40 | 43.48749 | -95.61350 | 15746 ft | 308 kts | 297° |
| 2026-04-20 23:40 | 43.49604 | -95.64043 | 15441 ft | 306 kts | 297° |
| 2026-04-20 23:40 | 43.50489 | -95.66828 | 15128 ft | 306 kts | 297° |
| 2026-04-20 23:40 | 43.51376 | -95.69620 | 14817 ft | 305 kts | 297° |
| 2026-04-20 23:41 | 43.52232 | -95.72309 | 14517 ft | 304 kts | 297° |
| 2026-04-20 23:41 | 43.53095 | -95.75011 | 14212 ft | 303 kts | 297° |
| 2026-04-20 23:41 | 43.53943 | -95.77661 | 13913 ft | 302 kts | 297° |
| 2026-04-20 23:41 | 43.54779 | -95.80273 | 13616 ft | 301 kts | 297° |
| 2026-04-20 23:42 | 43.55628 | -95.82918 | 13315 ft | 300 kts | 297° |
| 2026-04-20 23:42 | 43.56489 | -95.85593 | 13008 ft | 299 kts | 297° |
| 2026-04-20 23:42 | 43.57341 | -95.88232 | 12704 ft | 298 kts | 297° |
| 2026-04-20 23:42 | 43.58184 | -95.90837 | 12403 ft | 297 kts | 297° |
| 2026-04-20 23:43 | 43.59023 | -95.93427 | 12102 ft | 296 kts | 297° |
| 2026-04-20 23:43 | 43.59819 | -95.95873 | 11817 ft | 294 kts | 297° |
| 2026-04-20 23:43 | 43.60664 | -95.98431 | 11515 ft | 292 kts | 297° |
| 2026-04-20 23:43 | 43.61514 | -96.00952 | 11215 ft | 290 kts | 297° |
| 2026-04-20 23:44 | 43.62378 | -96.03466 | 10912 ft | 288 kts | 297° |
| 2026-04-20 23:44 | 43.63248 | -96.05943 | 10611 ft | 287 kts | 297° |
| 2026-04-20 23:44 | 43.64132 | -96.08413 | 10308 ft | 282 kts | 297° |
| 2026-04-20 23:44 | 43.64980 | -96.10747 | 9988 ft | 263 kts | 297° |
| 2026-04-20 23:45 | 43.65794 | -96.12941 | 9664 ft | 248 kts | 297° |
| 2026-04-20 23:45 | 43.66586 | -96.15025 | 9356 ft | 247 kts | 297° |
| 2026-04-20 23:45 | 43.67400 | -96.17130 | 9054 ft | 248 kts | 297° |
| 2026-04-20 23:45 | 43.67902 | -96.19357 | 8742 ft | 248 kts | 274° |
| 2026-04-20 23:46 | 43.67938 | -96.21746 | 8451 ft | 248 kts | 272° |
| 2026-04-20 23:46 | 43.67984 | -96.24114 | 8123 ft | 247 kts | 272° |
| 2026-04-20 23:46 | 43.68044 | -96.26514 | 7791 ft | 246 kts | 272° |
| 2026-04-20 23:46 | 43.68116 | -96.28886 | 7461 ft | 245 kts | 272° |
| 2026-04-20 23:47 | 43.68201 | -96.31242 | 7132 ft | 245 kts | 272° |
| 2026-04-20 23:47 | 43.68299 | -96.33591 | 6804 ft | 244 kts | 272° |
| 2026-04-20 23:47 | 43.68402 | -96.35920 | 6477 ft | 244 kts | 272° |
| 2026-04-20 23:47 | 43.68515 | -96.38258 | 6147 ft | 243 kts | 272° |
| 2026-04-20 23:48 | 43.68643 | -96.40624 | 5815 ft | 245 kts | 272° |
| 2026-04-20 23:48 | 43.68775 | -96.42977 | 5484 ft | 245 kts | 272° |
| 2026-04-20 23:48 | 43.68916 | -96.45297 | 5165 ft | 244 kts | 272° |
| 2026-04-20 23:48 | 43.69081 | -96.47637 | 4834 ft | 241 kts | 272° |
| 2026-04-20 23:49 | 43.69236 | -96.49886 | 4492 ft | 230 kts | 273° |
| 2026-04-20 23:49 | 43.69394 | -96.52054 | 4150 ft | 221 kts | 272° |
| 2026-04-20 23:49 | 43.69569 | -96.54092 | 3953 ft | 204 kts | 272° |
| 2026-04-20 23:49 | 43.69736 | -96.55971 | 3618 ft | 193 kts | 273° |
| 2026-04-20 23:50 | 43.69903 | -96.57779 | 3276 ft | 185 kts | 272° |
| 2026-04-20 23:50 | 43.70077 | -96.59510 | 2936 ft | 183 kts | 273° |
| 2026-04-20 23:50 | 43.70246 | -96.61230 | 2610 ft | 180 kts | 273° |
| 2026-04-20 23:50 | 43.70335 | -96.62919 | 2394 ft | 167 kts | 258° |
| 2026-04-20 23:51 | 43.69838 | -96.64002 | 2540 ft | 117 kts | 214° |
| 2026-04-20 23:51 | 43.69144 | -96.64546 | 2696 ft | 120 kts | 208° |
| 2026-04-20 23:51 | 43.68344 | -96.65085 | 2916 ft | 140 kts | 207° |
| 2026-04-20 23:51 | 43.67395 | -96.65753 | 3083 ft | 163 kts | 209° |
| 2026-04-20 23:52 | 43.66510 | -96.66481 | 3171 ft | 140 kts | 215° |
| 2026-04-20 23:52 | 43.65781 | -96.67197 | 2992 ft | 123 kts | 214° |
| 2026-04-20 23:52 | 43.65100 | -96.67869 | 2810 ft | 120 kts | 213° |
| 2026-04-20 23:52 | 43.64387 | -96.68545 | 2663 ft | 126 kts | 215° |
| 2026-04-20 23:53 | 43.63670 | -96.69210 | 2481 ft | 125 kts | 213° |
| 2026-04-20 23:53 | 43.62977 | -96.69886 | 2356 ft | 120 kts | 215° |
| 2026-04-20 23:53 | 43.62289 | -96.70551 | 2160 ft | 124 kts | 213° |
| 2026-04-20 23:53 | 43.61575 | -96.71240 | 2021 ft | 124 kts | 213° |
| 2026-04-20 23:54 | 43.60876 | -96.71918 | 1848 ft | 123 kts | 214° |
| 2026-04-20 23:54 | 43.60177 | -96.72575 | 1667 ft | 120 kts | 213° |
| 2026-04-20 23:54 | 43.59485 | -96.73242 | 1518 ft | 123 kts | 211° |
| 2026-04-20 23:54 | 43.58844 | -96.73850 | 1427 ft | 98 kts | 214° |
| 2026-04-20 23:55 | 43.58399 | -96.74275 | 1424 ft | 52 kts | 215° |
| 2026-04-20 23:55 | 43.58219 | -96.74442 | 1423 ft | 21 kts | 191° |
| 2026-04-20 23:55 | 43.58129 | -96.74314 | 1423 ft | 19 kts | 125° |
| 2026-04-20 23:55 | 43.58081 | -96.74140 | 1423 ft | 19 kts | 102° |
| 2026-04-20 23:56 | 43.58050 | -96.73955 | 1424 ft | 19 kts | 104° |
| 2026-04-20 23:56 | 43.58032 | -96.73766 | 1423 ft | 20 kts | 87° |
| 2026-04-20 23:56 | 43.58031 | -96.73579 | 1423 ft | 20 kts | 97° |
| 2026-04-20 23:56 | 43.58011 | -96.73473 | 1423 ft | 2 kts | 78° |
| 2026-04-20 23:57 | 43.58020 | -96.73438 | 1423 ft | 4 kts | 69° |
| 2026-04-20 23:57 | 43.58028 | -96.73408 | 1423 ft | 1 kts | 73° |
| 2026-04-20 23:57 | 43.58029 | -96.73402 | 1423 ft | 0 kts | 73° |